메인 페이지
METAR-TAF:

METAR-TAF

공항 :

Lawrence Municipal Airport

로오렌스, 캔자스, 미국

위도: 39-00-30N, 경도: 095-12-42W, 고도: 253m

현재 날씨관측

예보는 25분 전, 01:52시(UTC)에 발표되었습니다.
4kt
온도 24°C
습도 89%
기압 1014 hPa
시정: 16.1km
고도 3500ft 상공 흐림
약한비

METAR: KLWC 260152Z AUTO 18004KT 10SM -RA OVC035 24/22 A2995 RMK AO2 RAB08E17B44 SLP135 P0000 T02390217

시각: 21:17 (02:17 UTC)


TAF: 누락

4,000개 이상의 공항 관측 자료 및 예보 (METAR 및 TAF 보고).

지도상에서 검색 가능한 기상관측소가 노란 점과 빨간 점으로 표시되어 있습니다.

기상관측소 명을 보려면 표시 위로 마우스를 이동하세요.

날씨 관측과 예보를 보려면 클릭하세요.

지도 변경 : 확대하려면 엑스 표시가 있는 녹색 버튼, 축소하려면 빼기 표시가 있는 녹색 버튼, 다음 페이지의 지도를 보려면 녹색 화살표를 클릭하세요.


METAR-TAF: